sensor_id;sensor_type;location;lat;lon;timestamp;temperature;humidity
51765;DHT22;37835;53.256;6.456;2023-06-01T00:00:33;11.60;99.90
51765;DHT22;37835;53.256;6.456;2023-06-01T00:02:58;11.60;99.90
51765;DHT22;37835;53.256;6.456;2023-06-01T00:05:24;11.60;99.90
51765;DHT22;37835;53.256;6.456;2023-06-01T00:07:50;11.60;99.90
51765;DHT22;37835;53.256;6.456;2023-06-01T00:10:16;11.50;99.90
51765;DHT22;37835;53.256;6.456;2023-06-01T00:12:41;11.60;99.90
51765;DHT22;37835;53.256;6.456;2023-06-01T00:15:08;11.60;99.90
51765;DHT22;37835;53.256;6.456;2023-06-01T00:17:34;11.60;99.90
51765;DHT22;37835;53.256;6.456;2023-06-01T00:20:00;11.50;99.90
51765;DHT22;37835;53.256;6.456;2023-06-01T00:22:27;11.50;99.90
51765;DHT22;37835;53.256;6.456;2023-06-01T00:24:54;11.50;99.90
51765;DHT22;37835;53.256;6.456;2023-06-01T00:27:20;11.50;99.90
51765;DHT22;37835;53.256;6.456;2023-06-01T00:29:46;11.50;99.90
51765;DHT22;37835;53.256;6.456;2023-06-01T00:32:11;11.50;99.90
51765;DHT22;37835;53.256;6.456;2023-06-01T00:34:37;11.50;99.90
51765;DHT22;37835;53.256;6.456;2023-06-01T00:37:02;11.50;99.90
51765;DHT22;37835;53.256;6.456;2023-06-01T00:39:28;11.50;99.90
51765;DHT22;37835;53.256;6.456;2023-06-01T00:41:53;11.50;99.90
51765;DHT22;37835;53.256;6.456;2023-06-01T00:44:19;11.50;99.90
51765;DHT22;37835;53.256;6.456;2023-06-01T00:46:45;11.50;99.90
51765;DHT22;37835;53.256;6.456;2023-06-01T00:49:11;11.50;99.90
51765;DHT22;37835;53.256;6.456;2023-06-01T00:51:37;11.50;99.90
51765;DHT22;37835;53.256;6.456;2023-06-01T00:54:03;11.50;99.90
51765;DHT22;37835;53.256;6.456;2023-06-01T00:56:28;11.50;99.90
51765;DHT22;37835;53.256;6.456;2023-06-01T00:58:56;11.50;99.90
51765;DHT22;37835;53.256;6.456;2023-06-01T01:01:22;11.50;99.90
51765;DHT22;37835;53.256;6.456;2023-06-01T01:03:50;11.40;99.90
51765;DHT22;37835;53.256;6.456;2023-06-01T01:06:52;11.50;99.90
51765;DHT22;37835;53.256;6.456;2023-06-01T01:09:28;11.50;99.90
51765;DHT22;37835;53.256;6.456;2023-06-01T01:12:19;11.40;99.90
51765;DHT22;37835;53.256;6.456;2023-06-01T01:14:52;11.50;99.90
51765;DHT22;37835;53.256;6.456;2023-06-01T01:17:42;11.40;99.90
51765;DHT22;37835;53.256;6.456;2023-06-01T01:20:13;11.50;99.90
51765;DHT22;37835;53.256;6.456;2023-06-01T01:28:54;11.40;99.90
51765;DHT22;37835;53.256;6.456;2023-06-01T01:31:24;11.40;99.90
51765;DHT22;37835;53.256;6.456;2023-06-01T01:33:53;11.30;99.90
51765;DHT22;37835;53.256;6.456;2023-06-01T01:36:18;11.30;99.90
51765;DHT22;37835;53.256;6.456;2023-06-01T01:38:44;11.30;99.90
51765;DHT22;37835;53.256;6.456;2023-06-01T01:41:10;11.30;99.90
51765;DHT22;37835;53.256;6.456;2023-06-01T01:43:36;11.30;99.90
51765;DHT22;37835;53.256;6.456;2023-06-01T01:46:24;11.30;99.90
51765;DHT22;37835;53.256;6.456;2023-06-01T01:49:26;11.30;99.90
51765;DHT22;37835;53.256;6.456;2023-06-01T01:51:57;11.50;99.90
51765;DHT22;37835;53.256;6.456;2023-06-01T01:54:26;11.30;99.90
51765;DHT22;37835;53.256;6.456;2023-06-01T01:56:56;11.30;99.90
51765;DHT22;37835;53.256;6.456;2023-06-01T01:59:23;11.30;99.90
51765;DHT22;37835;53.256;6.456;2023-06-01T02:01:49;11.30;99.90
51765;DHT22;37835;53.256;6.456;2023-06-01T02:04:14;11.30;99.90
51765;DHT22;37835;53.256;6.456;2023-06-01T02:06:40;11.30;99.90
51765;DHT22;37835;53.256;6.456;2023-06-01T02:09:06;11.30;99.90
51765;DHT22;37835;53.256;6.456;2023-06-01T02:11:33;11.30;99.90
51765;DHT22;37835;53.256;6.456;2023-06-01T02:13:59;11.20;99.90
51765;DHT22;37835;53.256;6.456;2023-06-01T02:16:25;11.30;99.90
51765;DHT22;37835;53.256;6.456;2023-06-01T02:18:51;11.20;99.90
51765;DHT22;37835;53.256;6.456;2023-06-01T02:21:17;11.20;99.90
51765;DHT22;37835;53.256;6.456;2023-06-01T02:23:42;11.20;99.90
51765;DHT22;37835;53.256;6.456;2023-06-01T02:26:09;11.30;99.90
51765;DHT22;37835;53.256;6.456;2023-06-01T02:28:39;11.20;99.90
51765;DHT22;37835;53.256;6.456;2023-06-01T02:31:06;11.20;99.90
51765;DHT22;37835;53.256;6.456;2023-06-01T02:33:32;11.20;99.90
51765;DHT22;37835;53.256;6.456;2023-06-01T02:35:59;11.30;99.90
51765;DHT22;37835;53.256;6.456;2023-06-01T02:38:24;11.30;99.90
51765;DHT22;37835;53.256;6.456;2023-06-01T02:40:50;11.30;99.90
51765;DHT22;37835;53.256;6.456;2023-06-01T02:43:16;11.30;99.90
51765;DHT22;37835;53.256;6.456;2023-06-01T02:45:41;11.30;99.90
51765;DHT22;37835;53.256;6.456;2023-06-01T02:48:07;11.30;99.90
51765;DHT22;37835;53.256;6.456;2023-06-01T02:50:32;11.30;99.90
51765;DHT22;37835;53.256;6.456;2023-06-01T02:52:58;11.30;99.90
51765;DHT22;37835;53.256;6.456;2023-06-01T02:55:23;11.30;99.90
51765;DHT22;37835;53.256;6.456;2023-06-01T02:57:49;11.30;99.90
51765;DHT22;37835;53.256;6.456;2023-06-01T03:00:15;11.30;99.90
51765;DHT22;37835;53.256;6.456;2023-06-01T03:02:46;11.30;99.90
51765;DHT22;37835;53.256;6.456;2023-06-01T03:05:12;11.30;99.90
51765;DHT22;37835;53.256;6.456;2023-06-01T03:07:40;11.30;99.90
51765;DHT22;37835;53.256;6.456;2023-06-01T03:10:06;11.30;99.90
51765;DHT22;37835;53.256;6.456;2023-06-01T03:12:32;11.30;99.90
51765;DHT22;37835;53.256;6.456;2023-06-01T03:14:58;11.30;99.90
51765;DHT22;37835;53.256;6.456;2023-06-01T03:17:23;11.30;99.90
51765;DHT22;37835;53.256;6.456;2023-06-01T03:19:49;11.30;99.90
51765;DHT22;37835;53.256;6.456;2023-06-01T03:22:14;11.30;99.90
51765;DHT22;37835;53.256;6.456;2023-06-01T03:24:40;11.30;99.90
51765;DHT22;37835;53.256;6.456;2023-06-01T03:27:07;11.30;99.90
51765;DHT22;37835;53.256;6.456;2023-06-01T03:29:32;11.30;99.90
51765;DHT22;37835;53.256;6.456;2023-06-01T03:31:58;11.30;99.90
51765;DHT22;37835;53.256;6.456;2023-06-01T03:34:25;11.30;99.90
51765;DHT22;37835;53.256;6.456;2023-06-01T03:36:52;11.30;99.90
51765;DHT22;37835;53.256;6.456;2023-06-01T03:39:18;11.30;99.90
51765;DHT22;37835;53.256;6.456;2023-06-01T03:41:44;11.20;99.90
51765;DHT22;37835;53.256;6.456;2023-06-01T03:44:10;10.80;99.90
51765;DHT22;37835;53.256;6.456;2023-06-01T03:46:36;11.20;99.90
51765;DHT22;37835;53.256;6.456;2023-06-01T03:49:02;11.20;99.90
51765;DHT22;37835;53.256;6.456;2023-06-01T03:51:28;11.20;99.90
51765;DHT22;37835;53.256;6.456;2023-06-01T03:53:54;11.20;99.90
51765;DHT22;37835;53.256;6.456;2023-06-01T03:56:19;11.20;99.90
51765;DHT22;37835;53.256;6.456;2023-06-01T03:58:46;11.20;99.90
51765;DHT22;37835;53.256;6.456;2023-06-01T04:01:12;11.20;99.90
51765;DHT22;37835;53.256;6.456;2023-06-01T04:03:43;11.20;99.90
51765;DHT22;37835;53.256;6.456;2023-06-01T04:06:09;11.20;99.90
51765;DHT22;37835;53.256;6.456;2023-06-01T04:08:39;11.20;99.90
51765;DHT22;37835;53.256;6.456;2023-06-01T04:11:16;11.20;99.90
51765;DHT22;37835;53.256;6.456;2023-06-01T04:13:43;11.30;99.90
51765;DHT22;37835;53.256;6.456;2023-06-01T04:16:09;11.30;99.90
51765;DHT22;37835;53.256;6.456;2023-06-01T04:18:35;11.30;99.90
51765;DHT22;37835;53.256;6.456;2023-06-01T04:21:00;11.20;99.90
51765;DHT22;37835;53.256;6.456;2023-06-01T04:23:26;11.20;99.90
51765;DHT22;37835;53.256;6.456;2023-06-01T04:25:52;11.20;99.90
51765;DHT22;37835;53.256;6.456;2023-06-01T04:28:18;11.30;99.90
51765;DHT22;37835;53.256;6.456;2023-06-01T04:30:44;11.20;99.90
51765;DHT22;37835;53.256;6.456;2023-06-01T04:33:10;11.20;99.90
51765;DHT22;37835;53.256;6.456;2023-06-01T04:35:36;11.20;99.90
51765;DHT22;37835;53.256;6.456;2023-06-01T04:38:02;11.20;99.90
51765;DHT22;37835;53.256;6.456;2023-06-01T04:40:28;11.20;99.90
51765;DHT22;37835;53.256;6.456;2023-06-01T04:42:53;11.20;99.90
51765;DHT22;37835;53.256;6.456;2023-06-01T04:45:23;11.20;99.90
51765;DHT22;37835;53.256;6.456;2023-06-01T04:47:48;11.20;99.90
51765;DHT22;37835;53.256;6.456;2023-06-01T04:50:15;11.20;99.90
51765;DHT22;37835;53.256;6.456;2023-06-01T04:52:42;11.20;99.90
51765;DHT22;37835;53.256;6.456;2023-06-01T04:55:09;11.30;99.90
51765;DHT22;37835;53.256;6.456;2023-06-01T04:57:36;11.20;99.90
51765;DHT22;37835;53.256;6.456;2023-06-01T05:00:06;11.20;99.90
51765;DHT22;37835;53.256;6.456;2023-06-01T05:02:39;11.20;99.90
51765;DHT22;37835;53.256;6.456;2023-06-01T05:05:06;11.20;99.90
51765;DHT22;37835;53.256;6.456;2023-06-01T05:07:33;11.20;99.90
51765;DHT22;37835;53.256;6.456;2023-06-01T05:09:58;11.20;99.90
51765;DHT22;37835;53.256;6.456;2023-06-01T05:12:29;11.20;99.90
51765;DHT22;37835;53.256;6.456;2023-06-01T05:14:55;11.30;99.90
51765;DHT22;37835;53.256;6.456;2023-06-01T05:17:20;11.30;99.90
51765;DHT22;37835;53.256;6.456;2023-06-01T05:19:46;11.30;99.90
51765;DHT22;37835;53.256;6.456;2023-06-01T05:22:11;11.30;99.90
51765;DHT22;37835;53.256;6.456;2023-06-01T05:24:37;11.30;99.90
51765;DHT22;37835;53.256;6.456;2023-06-01T05:27:03;11.30;99.90
51765;DHT22;37835;53.256;6.456;2023-06-01T05:29:29;11.30;99.90
51765;DHT22;37835;53.256;6.456;2023-06-01T05:31:54;11.40;99.90
51765;DHT22;37835;53.256;6.456;2023-06-01T05:34:20;11.30;99.90
51765;DHT22;37835;53.256;6.456;2023-06-01T05:36:46;11.40;99.90
51765;DHT22;37835;53.256;6.456;2023-06-01T05:39:12;11.40;99.90
51765;DHT22;37835;53.256;6.456;2023-06-01T05:41:37;11.40;99.90
51765;DHT22;37835;53.256;6.456;2023-06-01T05:44:07;11.40;99.90
51765;DHT22;37835;53.256;6.456;2023-06-01T05:46:33;11.30;99.90
51765;DHT22;37835;53.256;6.456;2023-06-01T05:48:59;11.30;99.90
51765;DHT22;37835;53.256;6.456;2023-06-01T05:51:25;11.30;99.90
51765;DHT22;37835;53.256;6.456;2023-06-01T05:53:50;11.30;99.90
51765;DHT22;37835;53.256;6.456;2023-06-01T05:56:16;11.30;99.90
51765;DHT22;37835;53.256;6.456;2023-06-01T05:58:42;11.30;99.90
51765;DHT22;37835;53.256;6.456;2023-06-01T06:01:08;11.40;99.90
51765;DHT22;37835;53.256;6.456;2023-06-01T06:03:34;11.40;99.90
51765;DHT22;37835;53.256;6.456;2023-06-01T06:06:00;11.40;99.90
51765;DHT22;37835;53.256;6.456;2023-06-01T06:08:26;11.50;99.90
51765;DHT22;37835;53.256;6.456;2023-06-01T06:10:52;11.40;99.90
51765;DHT22;37835;53.256;6.456;2023-06-01T06:13:18;11.50;99.90
51765;DHT22;37835;53.256;6.456;2023-06-01T06:15:44;11.50;99.90
51765;DHT22;37835;53.256;6.456;2023-06-01T06:18:10;11.60;99.90
51765;DHT22;37835;53.256;6.456;2023-06-01T06:20:35;11.60;99.90
51765;DHT22;37835;53.256;6.456;2023-06-01T06:23:01;11.60;99.90
51765;DHT22;37835;53.256;6.456;2023-06-01T06:25:27;11.60;99.90
51765;DHT22;37835;53.256;6.456;2023-06-01T06:27:52;11.60;99.90
51765;DHT22;37835;53.256;6.456;2023-06-01T06:30:18;11.60;99.90
51765;DHT22;37835;53.256;6.456;2023-06-01T06:32:43;11.60;99.90
51765;DHT22;37835;53.256;6.456;2023-06-01T06:35:09;11.60;99.90
51765;DHT22;37835;53.256;6.456;2023-06-01T06:37:41;11.60;99.90
51765;DHT22;37835;53.256;6.456;2023-06-01T06:40:09;11.60;99.90
51765;DHT22;37835;53.256;6.456;2023-06-01T06:42:35;11.50;99.90
51765;DHT22;37835;53.256;6.456;2023-06-01T06:45:01;11.60;99.90
51765;DHT22;37835;53.256;6.456;2023-06-01T06:47:26;11.60;99.90
51765;DHT22;37835;53.256;6.456;2023-06-01T06:49:53;11.60;99.90
51765;DHT22;37835;53.256;6.456;2023-06-01T06:52:18;11.60;99.90
51765;DHT22;37835;53.256;6.456;2023-06-01T06:54:44;11.60;99.90
51765;DHT22;37835;53.256;6.456;2023-06-01T06:57:09;11.60;99.90
51765;DHT22;37835;53.256;6.456;2023-06-01T06:59:36;11.60;99.90
51765;DHT22;37835;53.256;6.456;2023-06-01T07:02:02;11.60;99.90
51765;DHT22;37835;53.256;6.456;2023-06-01T07:04:28;11.70;99.90
51765;DHT22;37835;53.256;6.456;2023-06-01T07:06:54;11.70;99.90
51765;DHT22;37835;53.256;6.456;2023-06-01T07:09:20;11.70;99.90
51765;DHT22;37835;53.256;6.456;2023-06-01T07:11:46;11.70;99.90
51765;DHT22;37835;53.256;6.456;2023-06-01T07:14:13;11.70;99.90
51765;DHT22;37835;53.256;6.456;2023-06-01T07:16:39;11.70;99.90
51765;DHT22;37835;53.256;6.456;2023-06-01T07:19:05;11.70;99.90
51765;DHT22;37835;53.256;6.456;2023-06-01T07:21:30;11.70;99.90
51765;DHT22;37835;53.256;6.456;2023-06-01T07:23:56;11.70;99.90
51765;DHT22;37835;53.256;6.456;2023-06-01T07:26:22;11.70;99.90
51765;DHT22;37835;53.256;6.456;2023-06-01T07:28:52;11.70;99.90
51765;DHT22;37835;53.256;6.456;2023-06-01T07:31:19;11.70;99.90
51765;DHT22;37835;53.256;6.456;2023-06-01T07:33:45;11.70;99.90
51765;DHT22;37835;53.256;6.456;2023-06-01T07:36:11;11.70;99.90
51765;DHT22;37835;53.256;6.456;2023-06-01T07:38:37;11.70;99.90
51765;DHT22;37835;53.256;6.456;2023-06-01T07:41:03;11.70;99.90
51765;DHT22;37835;53.256;6.456;2023-06-01T07:43:29;11.70;99.90
51765;DHT22;37835;53.256;6.456;2023-06-01T07:45:55;11.70;99.90
51765;DHT22;37835;53.256;6.456;2023-06-01T07:48:20;11.80;99.90
51765;DHT22;37835;53.256;6.456;2023-06-01T07:50:46;11.80;99.90
51765;DHT22;37835;53.256;6.456;2023-06-01T07:53:12;11.80;99.90
51765;DHT22;37835;53.256;6.456;2023-06-01T07:55:38;11.80;99.90
51765;DHT22;37835;53.256;6.456;2023-06-01T07:58:04;11.80;99.90
51765;DHT22;37835;53.256;6.456;2023-06-01T08:00:30;11.90;99.90
51765;DHT22;37835;53.256;6.456;2023-06-01T08:02:56;11.90;99.90
51765;DHT22;37835;53.256;6.456;2023-06-01T08:05:24;11.90;99.90
51765;DHT22;37835;53.256;6.456;2023-06-01T08:07:50;11.90;99.90
51765;DHT22;37835;53.256;6.456;2023-06-01T08:10:16;11.90;99.90
51765;DHT22;37835;53.256;6.456;2023-06-01T08:12:41;12.50;99.90
51765;DHT22;37835;53.256;6.456;2023-06-01T08:15:10;11.90;99.90
51765;DHT22;37835;53.256;6.456;2023-06-01T08:17:36;11.90;99.90
51765;DHT22;37835;53.256;6.456;2023-06-01T08:20:03;12.00;99.90
51765;DHT22;37835;53.256;6.456;2023-06-01T08:22:34;12.00;99.90
51765;DHT22;37835;53.256;6.456;2023-06-01T08:25:00;12.00;99.90
51765;DHT22;37835;53.256;6.456;2023-06-01T08:27:26;12.00;99.90
51765;DHT22;37835;53.256;6.456;2023-06-01T08:29:53;12.00;99.90
51765;DHT22;37835;53.256;6.456;2023-06-01T08:32:19;12.00;99.90
51765;DHT22;37835;53.256;6.456;2023-06-01T08:34:45;12.00;99.90
51765;DHT22;37835;53.256;6.456;2023-06-01T08:37:12;12.00;99.90
51765;DHT22;37835;53.256;6.456;2023-06-01T08:39:39;12.00;99.90
51765;DHT22;37835;53.256;6.456;2023-06-01T08:42:20;12.00;99.90
51765;DHT22;37835;53.256;6.456;2023-06-01T08:44:53;12.00;99.90
51765;DHT22;37835;53.256;6.456;2023-06-01T08:47:19;12.00;99.90
51765;DHT22;37835;53.256;6.456;2023-06-01T08:49:46;12.00;99.90
51765;DHT22;37835;53.256;6.456;2023-06-01T08:52:13;12.00;99.90
51765;DHT22;37835;53.256;6.456;2023-06-01T08:54:39;12.00;99.90
51765;DHT22;37835;53.256;6.456;2023-06-01T08:57:06;12.00;99.90
51765;DHT22;37835;53.256;6.456;2023-06-01T08:59:34;12.10;99.90
51765;DHT22;37835;53.256;6.456;2023-06-01T09:02:00;12.10;99.90
51765;DHT22;37835;53.256;6.456;2023-06-01T09:04:26;12.10;99.90
51765;DHT22;37835;53.256;6.456;2023-06-01T09:06:52;12.10;99.90
51765;DHT22;37835;53.256;6.456;2023-06-01T09:09:18;12.20;99.90
51765;DHT22;37835;53.256;6.456;2023-06-01T09:11:44;12.20;99.90
51765;DHT22;37835;53.256;6.456;2023-06-01T09:14:23;12.20;99.90
51765;DHT22;37835;53.256;6.456;2023-06-01T09:16:49;12.30;99.90
51765;DHT22;37835;53.256;6.456;2023-06-01T09:19:16;12.30;99.90
51765;DHT22;37835;53.256;6.456;2023-06-01T09:21:58;12.40;99.90
51765;DHT22;37835;53.256;6.456;2023-06-01T09:24:25;12.40;99.90
51765;DHT22;37835;53.256;6.456;2023-06-01T09:26:57;12.40;99.90
51765;DHT22;37835;53.256;6.456;2023-06-01T09:29:24;12.40;99.90
51765;DHT22;37835;53.256;6.456;2023-06-01T09:31:49;12.40;99.90
51765;DHT22;37835;53.256;6.456;2023-06-01T09:34:19;12.40;99.90
51765;DHT22;37835;53.256;6.456;2023-06-01T09:36:53;12.40;99.90
51765;DHT22;37835;53.256;6.456;2023-06-01T09:39:23;12.40;99.90
51765;DHT22;37835;53.256;6.456;2023-06-01T09:41:56;12.40;99.90
51765;DHT22;37835;53.256;6.456;2023-06-01T09:44:27;12.40;99.90
51765;DHT22;37835;53.256;6.456;2023-06-01T09:46:58;12.40;99.90
51765;DHT22;37835;53.256;6.456;2023-06-01T09:49:30;12.40;99.90
51765;DHT22;37835;53.256;6.456;2023-06-01T09:54:36;12.40;99.90
51765;DHT22;37835;53.256;6.456;2023-06-01T09:57:03;12.50;99.90
51765;DHT22;37835;53.256;6.456;2023-06-01T09:59:30;12.40;99.90
51765;DHT22;37835;53.256;6.456;2023-06-01T10:01:57;12.50;99.90
51765;DHT22;37835;53.256;6.456;2023-06-01T10:04:25;12.50;99.90
51765;DHT22;37835;53.256;6.456;2023-06-01T10:06:54;12.50;99.90
51765;DHT22;37835;53.256;6.456;2023-06-01T10:09:22;12.60;99.90
51765;DHT22;37835;53.256;6.456;2023-06-01T10:11:49;12.60;99.90
51765;DHT22;37835;53.256;6.456;2023-06-01T10:14:18;12.70;99.90
51765;DHT22;37835;53.256;6.456;2023-06-01T10:16:44;12.70;99.90
51765;DHT22;37835;53.256;6.456;2023-06-01T10:19:11;12.70;99.90
51765;DHT22;37835;53.256;6.456;2023-06-01T10:21:37;12.70;99.90
51765;DHT22;37835;53.256;6.456;2023-06-01T10:24:03;12.70;99.90
51765;DHT22;37835;53.256;6.456;2023-06-01T10:26:30;12.80;99.90
51765;DHT22;37835;53.256;6.456;2023-06-01T10:28:58;12.80;99.90
51765;DHT22;37835;53.256;6.456;2023-06-01T10:34:01;12.90;99.90
51765;DHT22;37835;53.256;6.456;2023-06-01T10:39:34;12.90;99.90
51765;DHT22;37835;53.256;6.456;2023-06-01T10:52:37;12.70;99.90
51765;DHT22;37835;53.256;6.456;2023-06-01T10:57:38;12.80;99.90
51765;DHT22;37835;53.256;6.456;2023-06-01T11:00:23;12.80;99.90
51765;DHT22;37835;53.256;6.456;2023-06-01T11:08:01;13.00;99.90
51765;DHT22;37835;53.256;6.456;2023-06-01T11:13:35;13.20;99.90
51765;DHT22;37835;53.256;6.456;2023-06-01T11:18:48;13.20;99.90
51765;DHT22;37835;53.256;6.456;2023-06-01T11:21:35;13.20;99.90
51765;DHT22;37835;53.256;6.456;2023-06-01T11:24:16;13.30;99.90
51765;DHT22;37835;53.256;6.456;2023-06-01T11:26:45;13.30;99.90
51765;DHT22;37835;53.256;6.456;2023-06-01T11:31:56;13.30;99.90
51765;DHT22;37835;53.256;6.456;2023-06-01T11:34:38;13.30;99.90
51765;DHT22;37835;53.256;6.456;2023-06-01T11:37:15;13.30;99.90
51765;DHT22;37835;53.256;6.456;2023-06-01T11:39:41;13.30;99.90
51765;DHT22;37835;53.256;6.456;2023-06-01T11:42:11;13.30;99.90
51765;DHT22;37835;53.256;6.456;2023-06-01T11:44:40;13.40;99.90
51765;DHT22;37835;53.256;6.456;2023-06-01T11:47:08;13.40;99.90
51765;DHT22;37835;53.256;6.456;2023-06-01T11:49:45;13.40;99.90
51765;DHT22;37835;53.256;6.456;2023-06-01T11:52:13;13.40;99.90
51765;DHT22;37835;53.256;6.456;2023-06-01T11:54:39;13.40;99.90
51765;DHT22;37835;53.256;6.456;2023-06-01T11:57:05;13.30;99.90
51765;DHT22;37835;53.256;6.456;2023-06-01T11:59:46;13.30;99.90
51765;DHT22;37835;53.256;6.456;2023-06-01T12:02:30;13.30;99.90
51765;DHT22;37835;53.256;6.456;2023-06-01T12:05:00;13.30;99.90
51765;DHT22;37835;53.256;6.456;2023-06-01T12:07:50;13.30;99.90
51765;DHT22;37835;53.256;6.456;2023-06-01T12:10:20;13.30;99.90
51765;DHT22;37835;53.256;6.456;2023-06-01T12:12:46;13.20;99.90
51765;DHT22;37835;53.256;6.456;2023-06-01T12:15:17;13.20;99.90
51765;DHT22;37835;53.256;6.456;2023-06-01T12:17:49;13.20;99.90
51765;DHT22;37835;53.256;6.456;2023-06-01T12:20:28;13.20;99.90
51765;DHT22;37835;53.256;6.456;2023-06-01T12:22:54;13.20;99.90
51765;DHT22;37835;53.256;6.456;2023-06-01T12:25:21;13.20;99.90
51765;DHT22;37835;53.256;6.456;2023-06-01T12:28:20;13.20;99.90
51765;DHT22;37835;53.256;6.456;2023-06-01T12:30:47;13.20;99.90
51765;DHT22;37835;53.256;6.456;2023-06-01T12:33:32;13.10;99.90
51765;DHT22;37835;53.256;6.456;2023-06-01T12:36:04;13.20;99.90
51765;DHT22;37835;53.256;6.456;2023-06-01T12:38:51;13.20;99.90
51765;DHT22;37835;53.256;6.456;2023-06-01T12:41:17;13.20;99.90
51765;DHT22;37835;53.256;6.456;2023-06-01T12:43:47;13.20;99.90
51765;DHT22;37835;53.256;6.456;2023-06-01T12:46:27;13.20;99.90
51765;DHT22;37835;53.256;6.456;2023-06-01T12:49:10;13.20;99.90
51765;DHT22;37835;53.256;6.456;2023-06-01T12:51:36;13.10;99.90
51765;DHT22;37835;53.256;6.456;2023-06-01T12:54:02;13.10;99.90
51765;DHT22;37835;53.256;6.456;2023-06-01T12:56:28;13.10;99.90
51765;DHT22;37835;53.256;6.456;2023-06-01T12:58:54;13.10;99.90
51765;DHT22;37835;53.256;6.456;2023-06-01T13:01:20;13.10;99.90
51765;DHT22;37835;53.256;6.456;2023-06-01T13:03:45;13.10;99.90
51765;DHT22;37835;53.256;6.456;2023-06-01T13:06:11;13.00;99.90
51765;DHT22;37835;53.256;6.456;2023-06-01T13:08:37;13.00;99.90
51765;DHT22;37835;53.256;6.456;2023-06-01T13:11:03;13.00;99.90
51765;DHT22;37835;53.256;6.456;2023-06-01T13:13:29;13.00;99.90
51765;DHT22;37835;53.256;6.456;2023-06-01T13:15:54;13.00;99.90
51765;DHT22;37835;53.256;6.456;2023-06-01T13:18:20;13.00;99.90
51765;DHT22;37835;53.256;6.456;2023-06-01T13:20:46;13.10;99.90
51765;DHT22;37835;53.256;6.456;2023-06-01T13:23:12;13.10;99.90
51765;DHT22;37835;53.256;6.456;2023-06-01T13:25:39;13.10;99.90
51765;DHT22;37835;53.256;6.456;2023-06-01T13:28:05;13.10;99.90
51765;DHT22;37835;53.256;6.456;2023-06-01T13:30:33;13.10;99.90
51765;DHT22;37835;53.256;6.456;2023-06-01T13:32:59;13.20;99.90
51765;DHT22;37835;53.256;6.456;2023-06-01T13:35:25;13.20;99.90
51765;DHT22;37835;53.256;6.456;2023-06-01T13:37:51;13.20;99.90
51765;DHT22;37835;53.256;6.456;2023-06-01T13:40:17;13.20;99.90
51765;DHT22;37835;53.256;6.456;2023-06-01T13:42:49;13.20;99.90
51765;DHT22;37835;53.256;6.456;2023-06-01T13:45:16;13.20;99.90
51765;DHT22;37835;53.256;6.456;2023-06-01T13:47:42;13.20;99.90
51765;DHT22;37835;53.256;6.456;2023-06-01T13:50:08;13.20;99.90
51765;DHT22;37835;53.256;6.456;2023-06-01T13:52:33;13.20;99.90
51765;DHT22;37835;53.256;6.456;2023-06-01T13:54:59;13.20;99.90
51765;DHT22;37835;53.256;6.456;2023-06-01T13:57:25;13.10;99.90
51765;DHT22;37835;53.256;6.456;2023-06-01T13:59:50;13.10;99.90
51765;DHT22;37835;53.256;6.456;2023-06-01T14:02:16;13.10;99.90
51765;DHT22;37835;53.256;6.456;2023-06-01T14:04:41;13.10;99.90
51765;DHT22;37835;53.256;6.456;2023-06-01T14:07:07;13.20;99.90
51765;DHT22;37835;53.256;6.456;2023-06-01T14:09:32;13.10;99.90
51765;DHT22;37835;53.256;6.456;2023-06-01T14:11:58;13.10;99.90
51765;DHT22;37835;53.256;6.456;2023-06-01T14:14:23;13.10;99.90
51765;DHT22;37835;53.256;6.456;2023-06-01T14:16:49;13.10;99.90
51765;DHT22;37835;53.256;6.456;2023-06-01T14:19:14;13.10;99.90
51765;DHT22;37835;53.256;6.456;2023-06-01T14:21:40;13.10;99.90
51765;DHT22;37835;53.256;6.456;2023-06-01T14:24:06;13.10;99.90
51765;DHT22;37835;53.256;6.456;2023-06-01T14:26:31;13.10;99.90
51765;DHT22;37835;53.256;6.456;2023-06-01T14:28:57;13.20;99.90
51765;DHT22;37835;53.256;6.456;2023-06-01T14:31:23;13.20;99.90
51765;DHT22;37835;53.256;6.456;2023-06-01T14:33:48;13.20;99.90
51765;DHT22;37835;53.256;6.456;2023-06-01T14:36:14;13.20;99.90
51765;DHT22;37835;53.256;6.456;2023-06-01T14:38:40;13.20;99.90
51765;DHT22;37835;53.256;6.456;2023-06-01T14:41:06;13.20;99.90
51765;DHT22;37835;53.256;6.456;2023-06-01T14:43:32;13.20;99.90
51765;DHT22;37835;53.256;6.456;2023-06-01T14:45:59;13.10;99.90
51765;DHT22;37835;53.256;6.456;2023-06-01T14:48:25;13.20;99.90
51765;DHT22;37835;53.256;6.456;2023-06-01T14:50:51;13.20;99.90
51765;DHT22;37835;53.256;6.456;2023-06-01T14:53:16;13.20;99.90
51765;DHT22;37835;53.256;6.456;2023-06-01T14:55:42;13.20;99.90
51765;DHT22;37835;53.256;6.456;2023-06-01T14:58:08;13.20;99.90
51765;DHT22;37835;53.256;6.456;2023-06-01T15:00:35;13.30;99.90
51765;DHT22;37835;53.256;6.456;2023-06-01T15:03:01;13.30;99.90
51765;DHT22;37835;53.256;6.456;2023-06-01T15:05:27;13.30;99.90
51765;DHT22;37835;53.256;6.456;2023-06-01T15:07:53;13.30;99.90
51765;DHT22;37835;53.256;6.456;2023-06-01T15:10:18;13.30;99.90
51765;DHT22;37835;53.256;6.456;2023-06-01T15:12:44;13.30;99.90
51765;DHT22;37835;53.256;6.456;2023-06-01T15:15:09;13.30;99.90
51765;DHT22;37835;53.256;6.456;2023-06-01T15:17:35;13.30;99.90
51765;DHT22;37835;53.256;6.456;2023-06-01T15:20:01;13.30;99.90
51765;DHT22;37835;53.256;6.456;2023-06-01T15:22:26;13.30;99.90
51765;DHT22;37835;53.256;6.456;2023-06-01T15:24:52;13.30;99.90
51765;DHT22;37835;53.256;6.456;2023-06-01T15:27:18;13.30;99.90
51765;DHT22;37835;53.256;6.456;2023-06-01T15:29:45;13.40;99.90
51765;DHT22;37835;53.256;6.456;2023-06-01T15:32:10;13.40;99.90
51765;DHT22;37835;53.256;6.456;2023-06-01T15:34:36;13.40;99.90
51765;DHT22;37835;53.256;6.456;2023-06-01T15:37:10;13.40;99.90
51765;DHT22;37835;53.256;6.456;2023-06-01T15:39:36;13.40;99.90
51765;DHT22;37835;53.256;6.456;2023-06-01T15:42:09;13.50;99.90
51765;DHT22;37835;53.256;6.456;2023-06-01T15:44:39;13.40;99.90
51765;DHT22;37835;53.256;6.456;2023-06-01T15:47:06;13.40;99.90
51765;DHT22;37835;53.256;6.456;2023-06-01T15:49:32;13.40;99.90
51765;DHT22;37835;53.256;6.456;2023-06-01T15:51:57;14.00;99.90
51765;DHT22;37835;53.256;6.456;2023-06-01T15:54:23;13.40;99.90
51765;DHT22;37835;53.256;6.456;2023-06-01T15:56:48;13.40;99.90
51765;DHT22;37835;53.256;6.456;2023-06-01T15:59:14;13.30;99.90
51765;DHT22;37835;53.256;6.456;2023-06-01T16:01:39;13.20;99.90
51765;DHT22;37835;53.256;6.456;2023-06-01T16:04:05;13.20;99.90
51765;DHT22;37835;53.256;6.456;2023-06-01T16:06:31;13.10;99.90
51765;DHT22;37835;53.256;6.456;2023-06-01T16:08:57;13.10;99.90
51765;DHT22;37835;53.256;6.456;2023-06-01T16:11:23;13.10;99.90
51765;DHT22;37835;53.256;6.456;2023-06-01T16:13:49;13.00;99.90